createdAt,value
2022-08-30T00:00:03.217Z,7.20
2022-08-30T00:02:35.171Z,6.65
2022-08-30T00:05:04.265Z,6.28
2022-08-30T00:07:33.025Z,6.80
2022-08-30T00:10:03.094Z,6.80
2022-08-30T00:12:32.838Z,6.15
2022-08-30T00:15:01.715Z,6.90
2022-08-30T00:17:30.460Z,7.05
2022-08-30T00:19:59.225Z,6.50
2022-08-30T00:22:27.984Z,6.50
2022-08-30T00:24:56.739Z,6.50
2022-08-30T00:27:26.896Z,6.25
2022-08-30T00:29:55.657Z,6.50
2022-08-30T00:32:25.137Z,6.57
2022-08-30T00:34:55.312Z,6.18
2022-08-30T00:37:24.530Z,6.47
2022-08-30T00:39:53.268Z,5.72
2022-08-30T00:42:22.631Z,6.20
2022-08-30T00:44:53.617Z,6.35
2022-08-30T00:47:22.346Z,6.28
2022-08-30T00:49:53.104Z,6.80
2022-08-30T00:52:23.628Z,6.53
2022-08-30T00:54:53.280Z,7.35
2022-08-30T00:57:22.143Z,8.80
2022-08-30T00:59:52.505Z,16.85
2022-08-30T01:02:23.674Z,13.52
2022-08-30T01:04:55.478Z,9.70
2022-08-30T01:07:24.405Z,9.27
2022-08-30T01:09:53.201Z,7.90
2022-08-30T01:12:23.419Z,7.88
2022-08-30T01:14:53.643Z,7.68
2022-08-30T01:17:23.296Z,7.43
2022-08-30T01:19:56.349Z,6.47
2022-08-30T01:22:31.402Z,8.68
2022-08-30T01:25:02.845Z,12.05
2022-08-30T01:27:33.398Z,14.68
2022-08-30T01:30:03.616Z,11.07
2022-08-30T01:32:32.408Z,11.48
2022-08-30T01:35:01.528Z,8.57
2022-08-30T01:37:33.945Z,8.65
2022-08-30T01:40:04.978Z,7.53
2022-08-30T01:42:33.728Z,6.95
2022-08-30T01:45:02.534Z,7.03
2022-08-30T01:47:31.226Z,6.63
2022-08-30T01:50:00.009Z,6.28
2022-08-30T01:52:28.822Z,6.70
2022-08-30T01:54:57.490Z,6.40
2022-08-30T01:57:28.295Z,6.47
2022-08-30T01:59:57.035Z,6.57
2022-08-30T02:02:28.323Z,6.60
2022-08-30T02:04:58.392Z,6.72
2022-08-30T02:07:27.737Z,6.72
2022-08-30T02:09:56.848Z,6.50
2022-08-30T02:12:27.641Z,6.50
2022-08-30T02:14:56.317Z,6.63
2022-08-30T02:17:25.922Z,6.72
2022-08-30T02:19:54.660Z,6.85
2022-08-30T02:22:23.359Z,6.60
2022-08-30T02:24:52.098Z,6.30
2022-08-30T02:27:20.834Z,6.70
2022-08-30T02:29:50.896Z,6.50
2022-08-30T02:32:19.763Z,6.38
2022-08-30T02:34:48.412Z,5.95
2022-08-30T02:37:20.475Z,6.03
2022-08-30T02:39:49.082Z,6.43
2022-08-30T02:42:17.772Z,6.57
2022-08-30T02:44:46.413Z,6.60
2022-08-30T02:47:16.794Z,6.68
2022-08-30T02:49:45.466Z,6.40
2022-08-30T02:52:14.397Z,6.55
2022-08-30T02:54:43.082Z,6.22
2022-08-30T02:57:20.130Z,6.68
2022-08-30T02:59:49.246Z,6.40
2022-08-30T03:02:19.318Z,5.65
2022-08-30T03:04:48.921Z,6.05
2022-08-30T03:07:17.941Z,6.35
2022-08-30T03:09:46.970Z,6.70
2022-08-30T03:12:15.874Z,6.50
2022-08-30T03:14:44.768Z,6.03
2022-08-30T03:17:15.763Z,6.55
2022-08-30T03:19:47.126Z,6.78
2022-08-30T03:22:16.218Z,6.85
2022-08-30T03:24:45.883Z,6.32
2022-08-30T03:27:14.733Z,7.47
2022-08-30T03:29:43.412Z,6.18
2022-08-30T03:32:12.133Z,6.35
2022-08-30T03:34:41.013Z,6.30
2022-08-30T03:37:11.092Z,5.93
2022-08-30T03:39:39.978Z,6.95
2022-08-30T03:42:08.902Z,6.07
2022-08-30T03:44:37.738Z,6.32
2022-08-30T03:47:08.463Z,6.03
2022-08-30T03:49:37.532Z,6.40
2022-08-30T03:52:06.328Z,6.57
2022-08-30T03:54:36.401Z,6.47
2022-08-30T03:57:07.156Z,6.13
2022-08-30T03:59:35.869Z,5.95
2022-08-30T04:02:05.127Z,6.45
2022-08-30T04:04:34.055Z,6.50
2022-08-30T04:07:02.743Z,5.85
2022-08-30T04:09:31.566Z,6.05
2022-08-30T04:12:01.599Z,5.85
2022-08-30T04:14:30.315Z,6.38
2022-08-30T04:16:59.082Z,6.25
2022-08-30T04:19:27.778Z,6.00
2022-08-30T04:21:57.316Z,6.15
2022-08-30T04:24:26.172Z,6.07
2022-08-30T04:26:54.878Z,6.18
2022-08-30T04:29:24.980Z,6.45
2022-08-30T04:31:53.697Z,6.90
2022-08-30T04:34:22.642Z,5.70
2022-08-30T04:36:51.670Z,5.50
2022-08-30T04:39:20.613Z,6.40
2022-08-30T04:41:49.388Z,5.97
2022-08-30T04:44:19.369Z,6.05
2022-08-30T04:46:49.785Z,6.22
2022-08-30T04:49:18.616Z,6.45
2022-08-30T04:51:47.842Z,6.57
2022-08-30T04:54:16.577Z,6.15
2022-08-30T04:56:45.323Z,6.35
2022-08-30T04:59:14.107Z,6.70
2022-08-30T05:01:45.458Z,6.47
2022-08-30T05:04:16.484Z,6.55
2022-08-30T05:06:46.618Z,6.45
2022-08-30T05:09:15.602Z,6.70
2022-08-30T05:11:44.350Z,6.60
2022-08-30T05:14:13.430Z,6.95
2022-08-30T05:16:42.522Z,6.43
2022-08-30T05:19:11.300Z,7.15
2022-08-30T05:21:41.682Z,6.35
2022-08-30T05:24:10.719Z,6.53
2022-08-30T05:26:40.687Z,6.57
2022-08-30T05:29:09.455Z,6.95
2022-08-30T05:31:39.020Z,7.30
2022-08-30T05:34:07.886Z,6.38
2022-08-30T05:36:37.971Z,6.55
2022-08-30T05:39:09.349Z,7.88
2022-08-30T05:41:38.968Z,7.03
2022-08-30T05:44:10.101Z,7.35
2022-08-30T05:46:39.671Z,6.95
2022-08-30T05:49:09.695Z,7.47
2022-08-30T05:51:42.837Z,7.55
2022-08-30T05:54:15.152Z,8.93
2022-08-30T05:56:46.387Z,7.28
2022-08-30T05:59:16.317Z,7.57
2022-08-30T06:01:47.745Z,8.05
2022-08-30T06:04:17.439Z,7.95
2022-08-30T06:06:46.146Z,6.97
2022-08-30T06:09:16.797Z,6.85
2022-08-30T06:11:46.720Z,7.70
2022-08-30T06:14:15.782Z,6.93
2022-08-30T06:16:45.902Z,7.78
2022-08-30T06:19:16.994Z,8.98
2022-08-30T06:21:49.222Z,7.72
2022-08-30T06:24:20.745Z,8.43
2022-08-30T06:26:53.614Z,7.68
2022-08-30T06:29:23.260Z,8.48
2022-08-30T06:31:52.045Z,7.50
2022-08-30T06:34:22.218Z,7.65
2022-08-30T06:36:50.919Z,7.35
2022-08-30T06:39:20.967Z,7.72
2022-08-30T06:41:49.657Z,7.47
2022-08-30T06:44:34.592Z,7.65
2022-08-30T06:47:03.831Z,6.95
2022-08-30T06:49:32.556Z,7.18
2022-08-30T06:52:01.361Z,7.30
2022-08-30T06:54:33.606Z,6.50
2022-08-30T06:57:03.132Z,6.53
2022-08-30T06:59:32.471Z,6.63
2022-08-30T07:02:01.344Z,6.75
2022-08-30T07:04:30.090Z,6.28
2022-08-30T07:06:58.796Z,6.38
2022-08-30T07:09:27.619Z,6.25
2022-08-30T07:11:57.798Z,6.13
2022-08-30T07:14:26.576Z,6.20
2022-08-30T07:16:55.424Z,6.85
2022-08-30T07:19:23.230Z,6.00
2022-08-30T07:21:51.933Z,6.18
2022-08-30T07:24:21.657Z,7.65
2022-08-30T07:26:52.399Z,6.50
2022-08-30T07:29:22.661Z,6.10
2022-08-30T07:31:51.392Z,6.18
2022-08-30T07:34:22.391Z,6.10
2022-08-30T07:36:53.247Z,6.90
2022-08-30T07:39:22.098Z,7.15
2022-08-30T07:41:50.947Z,5.85
2022-08-30T07:44:19.807Z,6.38
2022-08-30T07:46:53.433Z,6.68
2022-08-30T07:49:22.389Z,6.22
2022-08-30T07:51:51.953Z,6.43
2022-08-30T07:54:20.745Z,5.88
2022-08-30T07:56:49.771Z,6.22
2022-08-30T07:59:18.463Z,5.90
2022-08-30T08:01:47.248Z,6.60
2022-08-30T08:04:17.405Z,5.72
2022-08-30T08:06:46.173Z,5.40
2022-08-30T08:09:15.010Z,7.05
2022-08-30T08:11:43.663Z,6.80
2022-08-30T08:14:12.805Z,6.50
2022-08-30T08:16:42.357Z,6.60
2022-08-30T08:19:12.288Z,6.65
2022-08-30T08:21:42.622Z,6.63
2022-08-30T08:24:11.419Z,5.70
2022-08-30T08:26:45.385Z,6.25
2022-08-30T08:29:14.286Z,6.28
2022-08-30T08:31:43.524Z,5.72
2022-08-30T08:34:12.638Z,6.50
2022-08-30T08:36:42.985Z,5.97
2022-08-30T08:39:12.395Z,5.82
2022-08-30T08:41:51.174Z,5.82
2022-08-30T08:44:34.653Z,6.03
2022-08-30T08:47:13.837Z,7.07
2022-08-30T08:49:46.207Z,6.75
2022-08-30T08:52:38.818Z,6.10
2022-08-30T08:55:11.113Z,6.90
2022-08-30T08:57:40.164Z,6.45
2022-08-30T09:00:15.362Z,5.85
2022-08-30T09:02:46.994Z,7.15
2022-08-30T09:05:19.920Z,5.65
2022-08-30T09:07:53.158Z,5.45
2022-08-30T09:10:40.499Z,5.40
2022-08-30T09:13:13.455Z,5.60
2022-08-30T09:15:42.995Z,5.43
2022-08-30T09:18:19.437Z,7.05
2022-08-30T09:20:51.545Z,5.22
2022-08-30T09:23:32.316Z,5.47
2022-08-30T09:26:03.763Z,5.00
2022-08-30T09:28:35.175Z,5.28
2022-08-30T09:31:11.858Z,5.25
2022-08-30T09:33:41.175Z,5.35
2022-08-30T09:36:23.114Z,4.35
2022-08-30T09:39:02.145Z,4.40
2022-08-30T09:41:38.338Z,4.75
2022-08-30T09:44:15.083Z,5.25
2022-08-30T09:46:49.810Z,4.18
2022-08-30T09:49:34.878Z,4.43
2022-08-30T09:52:14.082Z,3.90
2022-08-30T09:54:54.895Z,4.25
2022-08-30T09:57:34.397Z,4.50
2022-08-30T10:00:09.076Z,4.40
2022-08-30T10:03:00.121Z,4.10
2022-08-30T10:05:37.487Z,3.88
2022-08-30T10:08:18.314Z,3.65
2022-08-30T10:10:53.518Z,3.90
2022-08-30T10:13:38.143Z,3.30
2022-08-30T10:16:16.026Z,3.90
2022-08-30T10:18:55.617Z,4.00
2022-08-30T10:21:30.373Z,3.50
2022-08-30T10:24:03.354Z,3.13
2022-08-30T10:26:37.732Z,4.93
2022-08-30T10:29:12.517Z,3.45
2022-08-30T10:31:47.174Z,3.20
2022-08-30T10:34:20.698Z,3.30
2022-08-30T10:36:56.204Z,2.90
2022-08-30T10:39:30.844Z,2.72
2022-08-30T10:42:08.574Z,3.20
2022-08-30T10:44:42.240Z,3.03
2022-08-30T10:47:23.323Z,2.92
2022-08-30T10:49:58.912Z,3.65
2022-08-30T10:52:35.395Z,3.58
2022-08-30T10:55:09.506Z,3.40
2022-08-30T10:57:43.118Z,3.00
2022-08-30T11:00:16.636Z,3.58
2022-08-30T11:03:44.781Z,3.20
2022-08-30T11:06:21.061Z,3.25
2022-08-30T11:09:29.890Z,2.92
2022-08-30T11:12:20.478Z,2.88
2022-08-30T11:14:50.829Z,2.90
2022-08-30T11:17:28.903Z,3.03
2022-08-30T11:20:00.527Z,2.80
2022-08-30T11:22:36.783Z,3.05
2022-08-30T11:25:11.594Z,3.03
2022-08-30T11:27:49.455Z,2.80
2022-08-30T11:30:53.553Z,2.47
2022-08-30T11:33:31.547Z,2.83
2022-08-30T11:36:00.350Z,2.90
2022-08-30T11:39:03.115Z,3.00
2022-08-30T11:41:40.940Z,2.75
2022-08-30T11:44:33.051Z,3.00
2022-08-30T11:47:23.989Z,2.80
2022-08-30T11:50:09.870Z,2.25
2022-08-30T11:52:51.198Z,2.67
2022-08-30T11:55:47.056Z,2.38
2022-08-30T11:58:25.899Z,2.53
2022-08-30T12:01:40.868Z,2.53
2022-08-30T12:04:15.097Z,2.28
2022-08-30T12:06:51.425Z,2.42
2022-08-30T12:09:59.956Z,2.40
2022-08-30T12:12:48.941Z,2.85
2022-08-30T12:15:58.788Z,2.75
2022-08-30T12:18:43.160Z,2.72
2022-08-30T12:21:28.948Z,2.53
2022-08-30T12:24:08.692Z,2.65
2022-08-30T12:26:41.245Z,2.42
2022-08-30T12:29:14.641Z,2.40
2022-08-30T12:31:47.689Z,2.58
2022-08-30T12:34:25.561Z,2.45
2022-08-30T12:36:59.565Z,2.95
2022-08-30T12:39:31.738Z,2.95
2022-08-30T12:42:17.543Z,2.70
2022-08-30T12:44:47.812Z,2.65
2022-08-30T12:47:23.156Z,2.47
2022-08-30T12:49:53.326Z,2.75
2022-08-30T12:52:31.795Z,2.58
2022-08-30T12:55:17.189Z,2.50
2022-08-30T12:57:59.747Z,2.85
2022-08-30T13:00:32.861Z,2.83
2022-08-30T13:03:16.307Z,2.40
2022-08-30T13:05:48.510Z,2.75
2022-08-30T13:08:27.536Z,2.72
2022-08-30T13:11:07.810Z,2.50
2022-08-30T13:13:40.765Z,2.83
2022-08-30T13:16:13.236Z,2.58
2022-08-30T13:18:42.096Z,2.90
2022-08-30T13:21:22.498Z,2.80
2022-08-30T13:23:56.441Z,2.70
2022-08-30T13:26:25.905Z,2.60
2022-08-30T13:28:58.776Z,2.95
2022-08-30T13:31:28.574Z,2.60
2022-08-30T13:33:59.901Z,2.60
2022-08-30T13:36:31.081Z,2.83
2022-08-30T13:39:02.301Z,2.75
2022-08-30T13:41:34.477Z,2.50
2022-08-30T13:44:13.123Z,2.70
2022-08-30T13:46:48.543Z,2.65
2022-08-30T13:52:21.378Z,2.30
2022-08-30T13:54:53.739Z,2.55
2022-08-30T14:00:19.399Z,2.90
2022-08-30T14:02:54.484Z,2.60
2022-08-30T14:05:47.742Z,3.03
2022-08-30T14:11:07.517Z,3.00
2022-08-30T14:13:36.928Z,2.70
2022-08-30T14:18:57.388Z,2.72
2022-08-30T14:21:26.549Z,2.97
2022-08-30T14:23:57.021Z,2.80
2022-08-30T14:26:32.214Z,2.92
2022-08-30T14:29:02.602Z,2.53
2022-08-30T14:31:32.745Z,3.05
2022-08-30T14:34:04.128Z,2.75
2022-08-30T14:36:33.581Z,3.33
2022-08-30T14:39:02.341Z,3.10
2022-08-30T14:41:41.356Z,2.97
2022-08-30T14:44:12.565Z,3.70
2022-08-30T14:46:41.663Z,4.63
2022-08-30T14:49:12.135Z,3.10
2022-08-30T14:51:41.580Z,3.38
2022-08-30T14:54:10.839Z,2.97
2022-08-30T14:56:42.578Z,2.97
2022-08-30T14:59:12.185Z,2.88
2022-08-30T15:01:43.184Z,3.00
2022-08-30T15:04:13.060Z,3.50
2022-08-30T15:06:43.932Z,3.42
2022-08-30T15:09:15.750Z,3.53
2022-08-30T15:11:47.022Z,3.33
2022-08-30T15:14:16.592Z,3.45
2022-08-30T15:16:45.868Z,2.88
2022-08-30T15:19:14.972Z,3.15
2022-08-30T15:21:45.329Z,3.13
2022-08-30T15:24:18.202Z,3.55
2022-08-30T15:26:49.453Z,3.22
2022-08-30T15:29:20.628Z,3.85
2022-08-30T15:31:50.191Z,3.47
2022-08-30T15:34:21.160Z,3.38
2022-08-30T15:36:54.987Z,3.60
2022-08-30T15:39:24.314Z,3.35
2022-08-30T15:41:59.929Z,3.00
2022-08-30T15:44:30.936Z,3.40
2022-08-30T15:46:59.873Z,3.05
2022-08-30T15:49:28.653Z,3.25
2022-08-30T15:52:02.405Z,3.22
2022-08-30T15:54:32.049Z,2.83
2022-08-30T15:57:02.108Z,3.03
2022-08-30T15:59:34.465Z,2.97
2022-08-30T16:02:03.262Z,2.90
2022-08-30T16:04:32.058Z,3.13
2022-08-30T16:07:00.794Z,2.83
2022-08-30T16:09:30.228Z,2.97
2022-08-30T16:12:04.566Z,2.80
2022-08-30T16:14:34.614Z,3.28
2022-08-30T16:17:03.625Z,3.17
2022-08-30T16:19:33.580Z,2.97
2022-08-30T16:22:02.884Z,3.10
2022-08-30T16:24:31.610Z,3.33
2022-08-30T16:27:00.317Z,3.08
2022-08-30T16:29:30.466Z,3.85
2022-08-30T16:31:59.246Z,3.30
2022-08-30T16:34:28.030Z,3.78
2022-08-30T16:36:56.774Z,3.10
2022-08-30T16:39:25.423Z,3.30
2022-08-30T16:41:54.129Z,3.33
2022-08-30T16:44:23.520Z,3.53
2022-08-30T16:47:00.097Z,3.10
2022-08-30T16:49:28.825Z,3.00
2022-08-30T16:51:57.914Z,2.95
2022-08-30T16:54:26.882Z,2.88
2022-08-30T16:56:55.812Z,3.40
2022-08-30T16:59:25.514Z,4.13
2022-08-30T17:01:54.260Z,4.07
2022-08-30T17:04:24.557Z,3.42
2022-08-30T17:06:53.998Z,3.63
2022-08-30T17:09:22.694Z,2.75
2022-08-30T17:11:52.834Z,3.10
2022-08-30T17:14:27.846Z,3.03
2022-08-30T17:16:58.523Z,3.00
2022-08-30T17:19:31.212Z,2.95
2022-08-30T17:22:00.414Z,2.97
2022-08-30T17:24:29.455Z,2.88
2022-08-30T17:26:58.274Z,3.10
2022-08-30T17:29:27.303Z,4.03
2022-08-30T17:31:56.925Z,4.50
2022-08-30T17:34:26.645Z,3.97
2022-08-30T17:36:59.780Z,3.78
2022-08-30T17:39:29.432Z,3.17
2022-08-30T17:41:58.863Z,3.28
2022-08-30T17:44:33.045Z,3.17
2022-08-30T17:47:02.582Z,5.95
2022-08-30T17:49:33.442Z,3.78
2022-08-30T17:52:05.083Z,3.55
2022-08-30T17:54:35.304Z,4.25
2022-08-30T17:57:10.667Z,3.47
2022-08-30T17:59:40.473Z,3.13
2022-08-30T18:02:11.375Z,3.88
2022-08-30T18:04:41.836Z,3.63
2022-08-30T18:07:12.935Z,3.08
2022-08-30T18:09:42.568Z,2.97
2022-08-30T18:12:12.849Z,2.97
2022-08-30T18:14:42.803Z,3.40
2022-08-30T18:17:11.989Z,3.50
2022-08-30T18:19:46.433Z,3.20
2022-08-30T18:22:17.676Z,3.65
2022-08-30T18:24:48.244Z,3.50
2022-08-30T18:27:17.025Z,3.80
2022-08-30T18:29:45.762Z,4.03
2022-08-30T18:32:14.623Z,4.00
2022-08-30T18:34:43.681Z,3.53
2022-08-30T18:37:16.632Z,3.40
2022-08-30T18:39:45.644Z,3.25
2022-08-30T18:42:16.259Z,3.25
2022-08-30T18:44:45.054Z,3.22
2022-08-30T18:47:13.788Z,3.10
2022-08-30T18:49:43.174Z,3.85
2022-08-30T18:52:12.295Z,3.53
2022-08-30T18:54:51.715Z,3.30
2022-08-30T18:57:22.245Z,3.58
2022-08-30T18:59:51.015Z,3.45
2022-08-30T19:02:19.932Z,3.50
2022-08-30T19:04:49.162Z,3.65
2022-08-30T19:07:19.972Z,3.38
2022-08-30T19:09:51.289Z,5.07
2022-08-30T19:12:20.046Z,6.07
2022-08-30T19:14:49.679Z,5.57
2022-08-30T19:17:18.328Z,4.60
2022-08-30T19:19:49.207Z,4.85
2022-08-30T19:22:20.270Z,5.40
2022-08-30T19:24:51.500Z,3.80
2022-08-30T19:27:37.853Z,3.45
2022-08-30T19:30:08.824Z,3.78
2022-08-30T19:32:37.825Z,3.40
2022-08-30T19:35:07.167Z,3.30
2022-08-30T19:37:36.395Z,3.72
2022-08-30T19:40:09.185Z,3.65
2022-08-30T19:42:45.786Z,3.45
2022-08-30T19:45:18.515Z,3.45
2022-08-30T19:47:47.857Z,3.50
2022-08-30T19:50:17.409Z,3.63
2022-08-30T19:52:53.355Z,3.40
2022-08-30T19:55:28.624Z,3.97
2022-08-30T19:57:59.017Z,3.65
2022-08-30T20:00:31.077Z,3.55
2022-08-30T20:03:01.537Z,3.45
2022-08-30T20:05:31.433Z,3.58
2022-08-30T20:08:00.586Z,3.58
2022-08-30T20:10:30.754Z,3.30
2022-08-30T20:12:59.899Z,3.60
2022-08-30T20:15:28.562Z,3.00
2022-08-30T20:18:06.353Z,3.90
2022-08-30T20:20:48.515Z,3.30
2022-08-30T20:23:21.453Z,3.30
2022-08-30T20:25:54.522Z,3.50
2022-08-30T20:28:24.561Z,3.30
2022-08-30T20:30:54.195Z,4.28
2022-08-30T20:33:24.580Z,5.95
2022-08-30T20:35:53.523Z,7.20
2022-08-30T20:38:22.536Z,4.88
2022-08-30T20:40:56.034Z,3.60
2022-08-30T20:43:27.075Z,3.85
2022-08-30T20:45:56.497Z,2.90
2022-08-30T20:48:28.605Z,3.35
2022-08-30T20:50:58.436Z,3.50
2022-08-30T20:53:27.840Z,3.72
2022-08-30T20:55:58.084Z,3.30
2022-08-30T20:58:26.769Z,3.65
2022-08-30T21:00:56.071Z,3.65
2022-08-30T21:03:26.552Z,3.22
2022-08-30T21:05:57.365Z,3.53
2022-08-30T21:08:26.531Z,3.67
2022-08-30T21:10:57.023Z,4.13
2022-08-30T21:13:25.868Z,5.07
2022-08-30T21:15:56.161Z,5.45
2022-08-30T21:18:32.750Z,4.50
2022-08-30T21:21:08.156Z,4.55
2022-08-30T21:23:38.009Z,4.60
2022-08-30T21:26:09.924Z,5.07
2022-08-30T21:28:38.793Z,5.32
2022-08-30T21:31:09.609Z,5.57
2022-08-30T21:33:38.683Z,6.80
2022-08-30T21:36:26.427Z,5.28
2022-08-30T21:39:00.491Z,4.78
2022-08-30T21:41:31.715Z,5.10
2022-08-30T21:44:02.048Z,4.78
2022-08-30T21:46:32.921Z,4.65
2022-08-30T21:49:03.935Z,5.13
2022-08-30T21:51:35.243Z,5.13
2022-08-30T21:54:04.579Z,4.45
2022-08-30T21:56:35.304Z,4.53
2022-08-30T21:59:04.621Z,4.78
2022-08-30T22:01:34.600Z,5.00
2022-08-30T22:04:08.607Z,4.28
2022-08-30T22:06:39.252Z,4.57
2022-08-30T22:09:09.663Z,3.92
2022-08-30T22:11:39.673Z,4.50
2022-08-30T22:14:09.928Z,4.60
2022-08-30T22:16:41.601Z,4.20
2022-08-30T22:19:11.617Z,3.72
2022-08-30T22:21:42.378Z,3.92
2022-08-30T22:24:12.492Z,4.97
2022-08-30T22:26:43.479Z,4.47
2022-08-30T22:29:12.511Z,4.53
2022-08-30T22:31:41.843Z,4.50
2022-08-30T22:34:11.303Z,4.20
2022-08-30T22:36:40.108Z,3.90
2022-08-30T22:39:09.984Z,4.40
2022-08-30T22:41:40.828Z,4.20
2022-08-30T22:44:11.509Z,4.20
2022-08-30T22:46:40.453Z,4.25
2022-08-30T22:49:10.775Z,4.22
2022-08-30T22:51:41.465Z,5.25
2022-08-30T22:54:10.902Z,5.07
2022-08-30T22:56:41.568Z,5.97
2022-08-30T22:59:11.617Z,6.25
2022-08-30T23:01:43.465Z,5.68
2022-08-30T23:04:13.227Z,5.50
2022-08-30T23:06:50.111Z,5.47
2022-08-30T23:09:19.555Z,5.20
2022-08-30T23:11:48.308Z,5.40
2022-08-30T23:14:18.288Z,6.50
2022-08-30T23:16:47.933Z,5.78
2022-08-30T23:19:17.047Z,5.50
2022-08-30T23:21:45.758Z,5.95
2022-08-30T23:24:31.924Z,5.53
2022-08-30T23:27:17.981Z,5.72
2022-08-30T23:30:05.511Z,5.47
2022-08-30T23:32:51.373Z,5.88
2022-08-30T23:35:37.467Z,5.43
2022-08-30T23:38:25.169Z,5.40
2022-08-30T23:41:11.205Z,5.25
2022-08-30T23:43:57.647Z,4.93
2022-08-30T23:46:45.149Z,5.53
2022-08-30T23:49:31.179Z,5.47
2022-08-30T23:52:17.228Z,5.65
2022-08-30T23:55:03.283Z,5.38
2022-08-30T23:57:49.176Z,5.82
